Time;durP1;ratioP1;P1;durP2;ratioP2;P2;SDS_P1;SDS_P2;PMS_P1;PMS_P2;Temp;Humidity;BMP_temperature;BMP_pressure;BME280_temperature;BME280_humidity;BME280_pressure;Samples;Min_cycle;Max_cycle;Signal;HPM_P1;HPM_P2
2024/01/09 00:00:18;;;;;;;9.27;3.08;;;0.90;94.70;;;;;;4801996;29;20066;-75
2024/01/09 00:02:47;;;;;;;9.98;3.35;;;0.10;94.50;;;;;;4801983;29;20411;-75
2024/01/09 00:05:15;;;;;;;11.57;3.90;;;0.10;94.30;;;;;;4794994;29;20051;-75
2024/01/09 00:07:44;;;;;;;10.70;3.22;;;0.00;93.60;;;;;;4788383;29;22359;-74
2024/01/09 00:10:14;;;;;;;7.65;2.92;;;0.00;93.30;;;;;;4768991;29;20696;-75
2024/01/09 00:12:42;;;;;;;8.90;2.70;;;0.00;93.00;;;;;;4773649;29;20050;-76
2024/01/09 00:15:11;;;;;;;8.65;4.05;;;0.00;92.50;;;;;;4783243;29;20047;-77
2024/01/09 00:17:39;;;;;;;7.60;2.95;;;0.10;92.90;;;;;;4788692;29;20054;-77
2024/01/09 00:20:08;;;;;;;8.02;3.25;;;0.10;93.10;;;;;;4774696;29;20077;-77
2024/01/09 00:22:37;;;;;;;9.48;3.47;;;0.10;93.30;;;;;;4812942;29;20054;-77
2024/01/09 00:25:07;;;;;;;7.20;3.05;;;0.10;92.90;;;;;;4770878;29;20058;-76
2024/01/09 00:27:38;;;;;;;12.27;3.53;;;0.10;93.00;;;;;;4769450;29;21378;-77
2024/01/09 00:30:08;;;;;;;9.50;2.60;;;0.70;92.60;;;;;;4769992;29;22409;-76
2024/01/09 00:32:36;;;;;;;7.47;2.92;;;0.10;92.70;;;;;;4781301;29;20143;-76
2024/01/09 00:35:06;;;;;;;12.02;3.75;;;0.10;92.30;;;;;;4782118;29;20231;-77
2024/01/09 00:37:34;;;;;;;11.40;3.42;;;0.00;92.10;;;;;;4769476;29;20998;-77
2024/01/09 00:40:03;;;;;;;6.95;2.72;;;0.10;92.80;;;;;;4801973;29;20557;-77
2024/01/09 00:42:31;;;;;;;6.07;2.40;;;0.10;92.00;;;;;;4782847;29;20055;-77
2024/01/09 00:45:01;;;;;;;8.45;2.47;;;0.00;92.20;;;;;;4786107;29;20061;-77
2024/01/09 00:47:31;;;;;;;6.90;2.40;;;0.10;92.30;;;;;;4805349;29;20064;-77
2024/01/09 00:50:00;;;;;;;6.95;2.53;;;0.10;92.10;;;;;;4805033;29;20408;-77
2024/01/09 00:52:29;;;;;;;7.55;2.28;;;0.10;92.20;;;;;;4820957;29;22329;-77
2024/01/09 00:54:57;;;;;;;5.72;2.50;;;0.10;91.80;;;;;;4801886;29;20050;-77
2024/01/09 00:57:25;;;;;;;6.03;2.25;;;0.10;91.80;;;;;;4798286;29;20321;-77
2024/01/09 00:59:54;;;;;;;5.90;1.92;;;0.40;91.50;;;;;;4796869;29;20310;-76
2024/01/09 01:02:23;;;;;;;12.13;2.92;;;0.10;91.70;;;;;;4823373;29;20711;-77
2024/01/09 01:04:52;;;;;;;8.48;2.58;;;0.10;91.60;;;;;;4806887;29;20186;-77
2024/01/09 01:07:21;;;;;;;7.95;2.22;;;0.10;91.20;;;;;;4807221;29;20072;-76
2024/01/09 01:09:50;;;;;;;5.85;1.80;;;0.10;91.60;;;;;;4805982;29;20076;-77
2024/01/09 01:12:18;;;;;;;5.30;1.92;;;0.10;91.20;;;;;;4790048;29;20441;-77
2024/01/09 01:14:46;;;;;;;5.63;1.80;;;0.10;91.40;;;;;;4807192;29;20058;-77
2024/01/09 01:17:15;;;;;;;6.00;2.53;;;0.10;91.50;;;;;;4810846;29;20057;-76
2024/01/09 01:19:44;;;;;;;6.15;2.17;;;0.10;91.40;;;;;;4810497;29;20632;-77
2024/01/09 01:22:13;;;;;;;6.70;2.47;;;0.10;90.20;;;;;;4822750;29;20056;-76
2024/01/09 01:24:41;;;;;;;7.72;2.30;;;0.10;90.00;;;;;;4822119;29;20556;-76
2024/01/09 01:27:10;;;;;;;9.07;2.65;;;0.10;90.50;;;;;;4809834;29;20718;-77
2024/01/09 01:29:38;;;;;;;10.32;3.03;;;0.00;90.50;;;;;;4816066;29;20053;-77
2024/01/09 01:32:10;;;;;;;6.90;1.92;;;0.10;90.00;;;;;;4827703;29;20065;-77
2024/01/09 01:34:38;;;;;;;7.10;2.47;;;0.10;91.10;;;;;;4808758;29;20060;-77
2024/01/09 01:37:08;;;;;;;7.03;2.55;;;0.00;90.10;;;;;;4809448;29;20532;-77
2024/01/09 01:39:37;;;;;;;6.78;2.65;;;1.10;90.20;;;;;;4804664;29;20041;-77
2024/01/09 01:42:06;;;;;;;9.43;2.83;;;0.10;90.20;;;;;;4817605;29;20205;-77
2024/01/09 01:44:34;;;;;;;10.95;2.90;;;0.10;90.20;;;;;;4808488;29;20065;-77
2024/01/09 01:47:03;;;;;;;8.70;2.70;;;0.10;90.40;;;;;;4807397;29;20061;-77
2024/01/09 01:49:31;;;;;;;7.10;2.38;;;0.10;88.90;;;;;;4812225;29;20227;-77
2024/01/09 01:52:00;;;;;;;10.55;3.40;;;0.10;87.70;;;;;;4809072;29;20049;-77
2024/01/09 01:54:33;;;;;;;10.38;2.47;;;0.10;87.20;;;;;;4808190;29;20080;-77
2024/01/09 01:57:01;;;;;;;;;;;0.10;88.70;;;;;;4809740;29;20133;-77
2024/01/09 01:59:31;;;;;;;9.70;2.17;;;0.10;88.70;;;;;;4808147;29;20392;-77
2024/01/09 02:02:00;;;;;;;8.68;2.35;;;0.10;88.80;;;;;;4806570;29;20156;-77
2024/01/09 02:04:29;;;;;;;7.43;2.38;;;0.10;87.60;;;;;;4805219;29;20068;-77
2024/01/09 02:06:58;;;;;;;6.55;2.20;;;0.10;87.10;;;;;;4807865;29;20065;-77
2024/01/09 02:09:27;;;;;;;6.95;2.08;;;0.10;87.20;;;;;;4806961;29;20525;-77
2024/01/09 02:11:57;;;;;;;5.53;1.90;;;0.10;88.60;;;;;;4806541;29;22699;-77
2024/01/09 02:14:26;;;;;;;6.05;1.98;;;0.10;88.60;;;;;;4807017;29;20623;-76
2024/01/09 02:16:54;;;;;;;4.95;1.98;;;0.10;89.00;;;;;;4809148;29;20053;-77
2024/01/09 02:19:23;;;;;;;6.55;2.17;;;0.10;89.30;;;;;;4824681;29;20546;-77
2024/01/09 02:21:51;;;;;;;10.25;2.42;;;0.10;88.70;;;;;;4810450;29;20057;-77
2024/01/09 02:24:20;;;;;;;7.80;1.80;;;0.10;86.80;;;;;;4808964;29;20057;-77
2024/01/09 02:26:55;;;;;;;5.55;2.15;;;0.10;87.40;;;;;;4783899;29;20050;-77
2024/01/09 02:29:37;;;;;;;6.65;1.80;;;0.10;87.70;;;;;;4806285;29;20049;-77
2024/01/09 02:32:07;;;;;;;4.05;1.48;;;0.10;86.20;;;;;;4807807;29;20061;-75
2024/01/09 02:34:37;;;;;;;5.40;1.73;;;0.10;87.70;;;;;;4807853;29;20092;-74
2024/01/09 02:37:06;;;;;;;5.47;1.70;;;0.10;88.00;;;;;;4809846;29;20054;-74
2024/01/09 02:39:34;;;;;;;4.53;1.58;;;0.10;87.60;;;;;;4839017;29;20077;-76
2024/01/09 02:42:03;;;;;;;7.07;1.48;;;0.10;86.80;;;;;;4792676;29;20157;-74
2024/01/09 02:44:31;;;;;;;7.90;1.80;;;0.10;88.20;;;;;;4779531;29;20065;-73
2024/01/09 02:46:59;;;;;;;5.13;1.17;;;0.10;85.70;;;;;;4805620;29;20095;-75
2024/01/09 02:49:29;;;;;;;5.30;1.95;;;0.10;85.50;;;;;;4783401;29;20065;-74
2024/01/09 02:51:58;;;;;;;5.57;1.23;;;0.00;83.70;;;;;;4824675;29;20046;-76
2024/01/09 02:54:26;;;;;;;5.28;1.80;;;0.00;85.20;;;;;;4808387;29;20084;-74
2024/01/09 02:56:54;;;;;;;4.82;1.40;;;0.10;84.70;;;;;;4803806;29;20191;-75
2024/01/09 02:59:25;;;;;;;7.15;1.77;;;0.10;84.30;;;;;;4806001;29;20116;-74
2024/01/09 03:01:54;;;;;;;4.50;1.20;;;0.10;85.10;;;;;;4820809;29;20433;-74
2024/01/09 03:04:22;;;;;;;3.95;1.15;;;0.10;84.30;;;;;;4829162;29;20045;-73
2024/01/09 03:06:52;;;;;;;5.32;1.40;;;0.10;83.80;;;;;;4821812;29;20053;-75
2024/01/09 03:09:20;;;;;;;5.15;1.45;;;0.10;83.40;;;;;;4809225;29;20954;-76
2024/01/09 03:11:49;;;;;;;5.93;1.15;;;0.10;84.90;;;;;;4805840;29;20058;-75
2024/01/09 03:14:17;;;;;;;5.55;1.40;;;0.10;83.40;;;;;;4801433;29;20084;-73
2024/01/09 03:16:48;;;;;;;5.13;1.35;;;0.10;85.50;;;;;;4821613;29;20639;-73
2024/01/09 03:19:17;;;;;;;5.40;1.38;;;0.10;84.80;;;;;;4784531;29;20694;-73
2024/01/09 03:21:45;;;;;;;6.85;1.38;;;0.10;86.00;;;;;;4804565;29;20437;-75
2024/01/09 03:24:15;;;;;;;8.40;1.73;;;0.10;88.40;;;;;;4788448;29;20057;-76
2024/01/09 03:26:44;;;;;;;8.98;2.40;;;0.10;85.90;;;;;;4803622;29;20581;-77
2024/01/09 03:29:12;;;;;;;9.45;3.35;;;0.20;86.50;;;;;;4803980;29;20045;-75
2024/01/09 03:31:41;;;;;;;11.35;2.42;;;0.20;88.80;;;;;;4803259;29;20064;-73
2024/01/09 03:34:09;;;;;;;10.07;3.45;;;0.10;85.30;;;;;;4803008;29;20049;-76
2024/01/09 03:36:38;;;;;;;9.27;2.70;;;0.10;85.50;;;;;;4806152;29;22315;-74
2024/01/09 03:39:09;;;;;;;12.95;3.20;;;0.20;89.40;;;;;;4789280;29;20057;-74
2024/01/09 03:41:39;;;;;;;11.85;3.30;;;0.10;88.40;;;;;;4809335;29;20057;-75
2024/01/09 03:44:07;;;;;;;13.50;3.20;;;0.10;88.70;;;;;;4810869;29;20136;-78
2024/01/09 03:46:36;;;;;;;12.60;2.90;;;0.10;87.50;;;;;;4808077;29;20046;-77
2024/01/09 03:49:04;;;;;;;9.90;3.45;;;0.10;85.20;;;;;;4793131;29;20058;-78
2024/01/09 03:51:33;;;;;;;15.45;4.35;;;0.00;84.20;;;;;;4800294;29;20650;-77
2024/01/09 03:54:01;;;;;;;12.57;3.17;;;0.10;84.30;;;;;;4800045;29;20129;-77
2024/01/09 03:56:29;;;;;;;8.70;2.42;;;0.10;84.20;;;;;;4810752;29;20111;-78
2024/01/09 03:59:00;;;;;;;12.88;3.33;;;0.00;85.60;;;;;;4809774;29;20049;-78
2024/01/09 04:01:28;;;;;;;8.25;2.72;;;0.10;85.20;;;;;;4807708;29;20057;-78
2024/01/09 04:03:57;;;;;;;11.02;3.28;;;0.00;82.70;;;;;;4804751;29;20053;-77
2024/01/09 04:06:25;;;;;;;9.25;2.95;;;0.00;83.60;;;;;;4794438;29;20184;-78
2024/01/09 04:08:54;;;;;;;11.30;2.33;;;0.10;84.10;;;;;;4806305;29;20057;-78
2024/01/09 04:11:22;;;;;;;5.90;1.90;;;0.00;82.90;;;;;;4813719;29;20097;-78
2024/01/09 04:13:51;;;;;;;8.13;1.77;;;0.00;83.70;;;;;;4816298;29;20532;-77
2024/01/09 04:16:21;;;;;;;9.38;2.40;;;0.00;82.80;;;;;;4810122;29;20530;-78
2024/01/09 04:18:49;;;;;;;6.30;2.03;;;0.00;84.80;;;;;;4817920;29;20049;-78
2024/01/09 04:21:18;;;;;;;5.75;1.63;;;0.00;82.90;;;;;;4796022;29;22254;-78
2024/01/09 04:23:46;;;;;;;5.70;1.90;;;0.00;82.80;;;;;;4793288;29;20589;-78
2024/01/09 04:26:15;;;;;;;5.95;1.85;;;0.00;82.90;;;;;;4809217;29;20072;-78
2024/01/09 04:28:43;;;;;;;6.40;1.63;;;-0.10;82.30;;;;;;4809706;29;20053;-77
2024/01/09 04:31:12;;;;;;;7.53;1.92;;;0.00;82.50;;;;;;4813080;29;20056;-77
2024/01/09 04:33:41;;;;;;;3.35;1.63;;;0.00;82.50;;;;;;4813383;29;20083;-77
2024/01/09 04:36:16;;;;;;;6.15;2.10;;;0.00;82.80;;;;;;4807267;29;20272;-78
2024/01/09 04:38:46;;;;;;;6.60;2.35;;;0.00;83.90;;;;;;4809447;29;23949;-77
2024/01/09 04:41:16;;;;;;;6.95;1.80;;;0.00;84.10;;;;;;4806228;29;20060;-78
2024/01/09 04:43:46;;;;;;;7.32;1.83;;;0.00;84.40;;;;;;4790120;29;22318;-78
2024/01/09 04:46:15;;;;;;;6.70;1.48;;;0.00;84.00;;;;;;4790630;29;20113;-78
2024/01/09 04:48:44;;;;;;;9.30;1.83;;;0.00;83.60;;;;;;4800535;29;20048;-78
2024/01/09 04:51:13;;;;;;;8.10;2.03;;;0.00;83.60;;;;;;4809793;29;20066;-78
2024/01/09 04:53:41;;;;;;;9.35;2.33;;;0.00;83.50;;;;;;4791852;29;20050;-75
2024/01/09 04:56:10;;;;;;;7.65;1.90;;;0.00;84.00;;;;;;4803603;29;20107;-74
2024/01/09 04:58:38;;;;;;;4.38;1.45;;;0.00;84.90;;;;;;4789875;29;20462;-75
2024/01/09 05:01:11;;;;;;;6.13;1.60;;;0.00;84.00;;;;;;4802457;29;20054;-73
2024/01/09 05:03:39;;;;;;;6.20;1.90;;;0.10;86.50;;;;;;4809708;29;20054;-75
2024/01/09 05:06:09;;;;;;;4.78;1.70;;;0.00;84.50;;;;;;4802988;29;20049;-74
2024/01/09 05:08:38;;;;;;;3.60;1.25;;;0.00;85.00;;;;;;4807044;29;20054;-74
2024/01/09 05:11:06;;;;;;;4.80;1.38;;;0.00;83.30;;;;;;4791610;29;20577;-73
2024/01/09 05:13:35;;;;;;;6.72;1.58;;;0.00;84.20;;;;;;4793142;29;20064;-74
2024/01/09 05:16:04;;;;;;;4.45;1.13;;;0.00;84.30;;;;;;4806017;29;20057;-75
2024/01/09 05:18:32;;;;;;;3.42;1.20;;;0.00;82.70;;;;;;4820552;29;20498;-74
2024/01/09 05:21:01;;;;;;;4.38;1.35;;;0.00;84.00;;;;;;4791743;29;22921;-74
2024/01/09 05:23:31;;;;;;;4.40;1.20;;;0.00;84.40;;;;;;4808704;29;20582;-73
2024/01/09 05:25:59;;;;;;;4.22;1.33;;;0.00;81.90;;;;;;4806690;29;20062;-74
2024/01/09 05:28:28;;;;;;;5.55;1.60;;;0.00;82.10;;;;;;4796119;29;20046;-74
2024/01/09 05:30:56;;;;;;;5.15;1.15;;;0.00;84.00;;;;;;4792879;29;20062;-74
2024/01/09 05:33:25;;;;;;;7.20;1.48;;;0.00;82.60;;;;;;4809076;29;20113;-74
2024/01/09 05:35:54;;;;;;;3.85;0.88;;;0.00;83.90;;;;;;4787202;29;20180;-74
2024/01/09 05:38:22;;;;;;;8.63;1.75;;;0.00;82.40;;;;;;4807816;29;20065;-75
2024/01/09 05:40:53;;;;;;;4.22;1.50;;;0.00;83.40;;;;;;4790098;29;20089;-75
2024/01/09 05:43:21;;;;;;;6.13;1.67;;;0.00;85.20;;;;;;4790796;29;20078;-75
2024/01/09 05:45:49;;;;;;;6.13;2.15;;;0.10;84.60;;;;;;4802964;29;20881;-75
2024/01/09 05:48:18;;;;;;;6.82;1.85;;;0.00;83.20;;;;;;4792163;29;20600;-74
2024/01/09 05:50:46;;;;;;;7.18;1.70;;;0.00;85.00;;;;;;4789189;29;20082;-75
2024/01/09 05:53:15;;;;;;;7.65;2.10;;;0.00;82.70;;;;;;4791909;29;20056;-75
2024/01/09 05:55:43;;;;;;;4.85;1.50;;;0.00;82.70;;;;;;4787470;29;20087;-74
2024/01/09 05:58:13;;;;;;;6.50;2.10;;;-0.10;80.60;;;;;;4789862;29;20102;-75
2024/01/09 06:00:41;;;;;;;5.65;1.23;;;-0.10;80.80;;;;;;4785583;29;20065;-75
2024/01/09 06:03:10;;;;;;;7.53;1.65;;;0.00;81.60;;;;;;4806229;29;20109;-76
2024/01/09 06:05:38;;;;;;;3.67;1.20;;;0.00;81.90;;;;;;4803848;29;20054;-76
2024/01/09 06:08:07;;;;;;;5.10;1.20;;;-0.10;80.50;;;;;;4824719;29;20057;-76
2024/01/09 06:10:36;;;;;;;4.80;1.63;;;0.00;82.80;;;;;;4806776;29;20262;-78
2024/01/09 06:13:05;;;;;;;9.82;1.85;;;0.20;81.70;;;;;;4810453;29;20054;-77
2024/01/09 06:15:35;;;;;;;5.85;1.27;;;1.00;83.10;;;;;;4825440;29;20054;-76
2024/01/09 06:18:04;;;;;;;7.28;1.52;;;-0.70;82.90;;;;;;4814928;29;20073;-78
2024/01/09 06:20:33;;;;;;;6.22;1.38;;;-0.10;81.70;;;;;;4825308;29;20038;-76
2024/01/09 06:23:01;;;;;;;5.70;1.50;;;0.10;83.70;;;;;;4814233;29;20054;-78
2024/01/09 06:25:30;;;;;;;7.40;1.85;;;0.00;83.60;;;;;;4802883;29;20058;-77
2024/01/09 06:27:59;;;;;;;4.78;1.63;;;0.00;82.10;;;;;;4810184;29;20057;-76
2024/01/09 06:30:28;;;;;;;6.38;2.15;;;-0.10;82.30;;;;;;4824165;29;20053;-76
2024/01/09 06:32:58;;;;;;;7.68;2.25;;;0.00;83.30;;;;;;4830153;29;20062;-76
2024/01/09 06:35:26;;;;;;;4.05;1.70;;;0.00;83.10;;;;;;4831860;29;20050;-77
2024/01/09 06:37:55;;;;;;;7.80;2.05;;;-0.10;83.00;;;;;;4827507;29;20054;-76
2024/01/09 06:40:24;;;;;;;5.13;2.03;;;-0.10;81.60;;;;;;4813415;29;20068;-76
2024/01/09 06:42:53;;;;;;;10.30;3.28;;;-0.10;82.50;;;;;;4809327;29;20054;-77
2024/01/09 06:45:21;;;;;;;9.23;2.90;;;0.40;82.10;;;;;;4804448;29;20162;-77
2024/01/09 06:47:49;;;;;;;10.27;3.65;;;0.00;82.00;;;;;;4800267;29;20730;-77
2024/01/09 06:50:19;;;;;;;11.25;2.85;;;0.00;81.60;;;;;;4804928;29;20054;-77
2024/01/09 06:53:04;;;;;;;12.32;3.05;;;0.40;82.20;;;;;;4803481;29;20049;-78
2024/01/09 06:55:33;;;;;;;5.88;1.85;;;0.00;82.80;;;;;;4803157;29;20090;-77
2024/01/09 06:58:03;;;;;;;10.02;2.05;;;0.00;81.30;;;;;;4792960;29;20722;-77
2024/01/09 07:00:31;;;;;;;8.65;2.20;;;0.00;81.80;;;;;;4805536;29;22434;-77
2024/01/09 07:03:00;;;;;;;5.15;1.33;;;1.90;83.40;;;;;;4804080;29;20066;-77
2024/01/09 07:05:30;;;;;;;7.85;2.00;;;0.00;80.80;;;;;;4805920;29;20230;-77
2024/01/09 07:07:58;;;;;;;5.65;1.75;;;0.00;80.50;;;;;;4810915;29;20057;-77
2024/01/09 07:10:26;;;;;;;8.45;2.67;;;1.80;81.20;;;;;;4809329;29;20140;-77
2024/01/09 07:12:57;;;;;;;6.65;1.85;;;0.90;81.10;;;;;;4813862;29;20054;-77
2024/01/09 07:15:26;;;;;;;8.38;2.03;;;1.00;83.20;;;;;;4814969;29;20533;-77
2024/01/09 07:17:55;;;;;;;6.53;1.38;;;0.40;80.60;;;;;;4827468;29;20046;-78
2024/01/09 07:20:23;;;;;;;7.50;1.63;;;0.00;81.60;;;;;;4801329;29;20826;-78
2024/01/09 07:22:54;;;;;;;8.48;1.88;;;0.00;79.90;;;;;;4805457;29;20058;-78
2024/01/09 07:25:36;;;;;;;8.90;1.92;;;0.00;80.40;;;;;;4810762;29;20054;-79
2024/01/09 07:28:05;;;;;;;7.38;2.00;;;0.10;81.80;;;;;;4792796;29;22643;-78
2024/01/09 07:30:34;;;;;;;9.18;2.20;;;0.10;81.80;;;;;;4798586;29;20113;-78
2024/01/09 07:33:02;;;;;;;10.05;1.63;;;0.10;80.60;;;;;;4813823;29;20061;-77
2024/01/09 07:35:34;;;;;;;7.97;1.90;;;0.10;80.20;;;;;;4812501;29;20613;-79
2024/01/09 07:38:04;;;;;;;5.78;2.05;;;0.10;80.90;;;;;;4804409;29;20510;-79
2024/01/09 07:40:33;;;;;;;9.43;2.22;;;0.10;82.60;;;;;;4815494;29;20143;-77
2024/01/09 07:43:01;;;;;;;7.50;2.25;;;0.20;81.80;;;;;;4837669;29;20110;-79
2024/01/09 07:45:29;;;;;;;4.53;1.52;;;0.10;80.50;;;;;;4793431;29;20746;-78
2024/01/09 07:48:00;;;;;;;11.80;2.80;;;0.10;79.70;;;;;;4784115;29;20073;-79
2024/01/09 07:50:28;;;;;;;15.40;4.53;;;0.10;80.40;;;;;;4788769;29;20054;-78
2024/01/09 07:52:57;;;;;;;16.13;5.00;;;0.10;81.10;;;;;;4802074;29;20062;-79
2024/01/09 07:55:29;;;;;;;12.25;4.47;;;0.20;81.20;;;;;;4784113;29;20110;-78
2024/01/09 07:57:59;;;;;;;13.07;3.30;;;0.10;79.20;;;;;;4778977;29;20107;-77
2024/01/09 08:00:28;;;;;;;5.78;2.42;;;0.20;79.20;;;;;;4794192;29;20062;-78
2024/01/09 08:02:56;;;;;;;9.80;3.40;;;0.20;80.60;;;;;;4783049;29;20133;-78
2024/01/09 08:05:25;;;;;;;6.18;1.88;;;0.20;81.10;;;;;;4809807;29;20363;-79
2024/01/09 08:07:53;;;;;;;9.98;3.33;;;0.30;80.10;;;;;;4783991;29;22248;-77
2024/01/09 08:10:22;;;;;;;10.27;2.75;;;0.30;80.50;;;;;;4798382;29;20058;-77
2024/01/09 08:12:52;;;;;;;6.13;2.20;;;0.30;80.60;;;;;;4784991;29;20057;-78
2024/01/09 08:15:22;;;;;;;5.80;1.90;;;0.40;82.00;;;;;;4780160;29;20054;-78
2024/01/09 08:17:50;;;;;;;9.70;2.05;;;0.30;81.10;;;;;;4780505;29;20065;-78
2024/01/09 08:20:19;;;;;;;5.53;1.27;;;0.40;79.80;;;;;;4797679;29;20541;-78
2024/01/09 08:22:49;;;;;;;5.72;1.60;;;0.40;77.00;;;;;;4780573;29;22630;-78
2024/01/09 08:25:17;;;;;;;7.20;1.65;;;0.40;77.30;;;;;;4795422;29;20718;-77
2024/01/09 08:27:45;;;;;;;3.75;1.33;;;0.50;79.20;;;;;;4778760;29;20058;-77
2024/01/09 08:30:16;;;;;;;6.75;2.05;;;0.50;77.40;;;;;;4784421;29;20055;-77
2024/01/09 08:32:45;;;;;;;8.15;2.28;;;0.50;77.80;;;;;;4777947;29;20061;-78
2024/01/09 08:35:14;;;;;;;4.00;0.98;;;0.50;78.20;;;;;;4781508;29;20061;-77
2024/01/09 08:37:42;;;;;;;4.78;1.45;;;0.50;76.50;;;;;;4800171;29;20091;-78
2024/01/09 08:40:11;;;;;;;5.60;1.73;;;0.50;75.80;;;;;;4779757;29;20819;-77
2024/01/09 08:42:40;;;;;;;3.83;0.77;;;0.60;74.70;;;;;;4791311;29;20054;-79
2024/01/09 08:45:09;;;;;;;5.63;1.02;;;0.60;73.40;;;;;;4806920;29;20179;-78
2024/01/09 08:47:39;;;;;;;3.78;1.00;;;0.60;75.10;;;;;;4793673;29;20064;-76
2024/01/09 08:50:08;;;;;;;3.50;0.73;;;0.60;73.10;;;;;;4822723;29;20050;-76
2024/01/09 08:52:37;;;;;;;3.08;0.75;;;0.70;72.70;;;;;;4814245;29;22374;-77
2024/01/09 08:55:06;;;;;;;5.45;1.27;;;0.60;71.90;;;;;;4821012;29;20061;-77
2024/01/09 08:57:34;;;;;;;6.80;1.05;;;0.60;71.80;;;;;;4816953;29;20186;-76
2024/01/09 09:00:04;;;;;;;5.68;0.85;;;0.70;69.80;;;;;;4788499;29;20065;-76
2024/01/09 09:02:32;;;;;;;2.78;0.85;;;0.70;69.10;;;;;;4804480;29;20054;-74
2024/01/09 09:05:02;;;;;;;3.63;1.00;;;0.70;70.90;;;;;;4814955;29;20399;-76
2024/01/09 09:07:31;;;;;;;3.97;1.38;;;0.80;70.00;;;;;;4821513;29;20045;-76
2024/01/09 09:10:00;;;;;;;2.53;0.75;;;0.80;71.30;;;;;;4816692;29;20691;-75
2024/01/09 09:12:28;;;;;;;2.88;0.90;;;0.80;70.70;;;;;;4823559;29;20053;-75
2024/01/09 09:14:56;;;;;;;5.18;1.10;;;0.80;70.50;;;;;;4817521;29;20109;-75
2024/01/09 09:17:25;;;;;;;3.40;0.68;;;0.80;72.00;;;;;;4814240;29;20439;-75
2024/01/09 09:19:53;;;;;;;3.00;1.05;;;0.90;71.30;;;;;;4824773;29;20065;-76
2024/01/09 09:22:25;;;;;;;2.95;1.10;;;0.90;70.70;;;;;;4821490;29;20199;-75
2024/01/09 09:24:54;;;;;;;4.40;1.23;;;0.90;70.60;;;;;;4811626;29;20533;-75
2024/01/09 09:27:22;;;;;;;3.15;0.90;;;1.00;71.30;;;;;;4823413;29;20403;-76
2024/01/09 09:29:52;;;;;;;4.13;1.20;;;0.90;70.60;;;;;;4815039;29;20101;-76
2024/01/09 09:32:21;;;;;;;2.80;0.90;;;1.00;69.50;;;;;;4823301;29;20549;-76
2024/01/09 09:34:49;;;;;;;2.85;0.52;;;0.90;68.10;;;;;;4811377;29;20058;-76
2024/01/09 09:37:20;;;;;;;4.40;1.27;;;1.00;68.70;;;;;;4826196;29;20053;-75
2024/01/09 09:39:49;;;;;;;3.03;0.70;;;1.00;69.60;;;;;;4830733;29;20178;-76
2024/01/09 09:42:20;;;;;;;3.88;1.05;;;1.00;69.30;;;;;;4810034;29;20053;-76
2024/01/09 09:44:51;;;;;;;4.22;1.27;;;1.00;68.00;;;;;;4810816;29;20510;-76
2024/01/09 09:47:21;;;;;;;2.15;0.68;;;1.00;68.10;;;;;;4813714;29;20057;-76
2024/01/09 09:49:51;;;;;;;3.63;0.52;;;1.10;68.50;;;;;;4787131;29;20137;-76
2024/01/09 09:52:20;;;;;;;2.95;0.50;;;1.10;67.40;;;;;;4814989;29;22452;-75
2024/01/09 09:54:50;;;;;;;5.97;0.98;;;1.10;68.50;;;;;;4803457;29;20061;-75
2024/01/09 09:57:20;;;;;;;3.22;0.80;;;1.10;69.10;;;;;;4812417;29;20872;-76
2024/01/09 09:59:48;;;;;;;1.92;0.75;;;1.10;68.50;;;;;;4809595;29;22083;-75
2024/01/09 10:02:25;;;;;;;2.15;0.70;;;1.10;67.40;;;;;;4792348;29;20831;-76
2024/01/09 10:04:57;;;;;;;5.22;1.63;;;1.20;67.10;;;;;;4814827;29;20147;-76
2024/01/09 10:07:25;;;;;;;2.95;1.25;;;1.20;66.40;;;;;;4811318;29;20333;-75
2024/01/09 10:09:59;;;;;;;3.58;0.88;;;1.40;68.00;;;;;;4825115;29;20497;-76
2024/01/09 10:12:29;;;;;;;3.53;0.88;;;1.40;68.40;;;;;;4812696;29;20065;-76
2024/01/09 10:15:03;;;;;;;3.55;0.65;;;1.40;67.60;;;;;;4814159;29;20057;-76
2024/01/09 10:17:32;;;;;;;1.67;0.40;;;1.40;67.70;;;;;;4812606;29;20050;-76
2024/01/09 10:20:02;;;;;;;2.90;0.55;;;1.50;69.60;;;;;;4818709;29;20042;-76
2024/01/09 10:22:32;;;;;;;6.68;1.40;;;1.50;69.90;;;;;;4824748;29;20511;-75
2024/01/09 10:25:05;;;;;;;3.75;0.60;;;1.40;68.80;;;;;;4815805;29;20049;-77
2024/01/09 10:27:35;;;;;;;3.35;1.05;;;1.40;67.70;;;;;;4811179;29;22775;-76
2024/01/09 10:30:04;;;;;;;4.35;1.20;;;1.40;68.40;;;;;;4832721;29;20529;-76
2024/01/09 10:32:33;;;;;;;3.58;0.93;;;1.30;68.10;;;;;;4812079;29;20417;-75
2024/01/09 10:35:03;;;;;;;4.38;0.95;;;1.30;67.20;;;;;;4816192;29;20065;-76
2024/01/09 10:37:31;;;;;;;2.67;0.85;;;1.20;67.00;;;;;;4796504;29;22197;-77
2024/01/09 10:40:04;;;;;;;3.92;1.10;;;1.30;68.20;;;;;;4817329;29;20163;-76
2024/01/09 10:42:44;;;;;;;3.13;0.80;;;1.20;67.70;;;;;;4831816;29;20405;-76
2024/01/09 10:45:13;;;;;;;5.05;1.33;;;1.30;69.70;;;;;;4819466;29;20066;-78
2024/01/09 10:47:42;;;;;;;4.78;1.50;;;1.50;70.50;;;;;;4798247;29;20061;-78
2024/01/09 10:50:12;;;;;;;2.80;0.68;;;1.50;71.20;;;;;;4800698;29;20049;-77
2024/01/09 10:52:42;;;;;;;3.13;0.88;;;1.50;70.00;;;;;;4823257;29;20128;-77
2024/01/09 10:55:13;;;;;;;3.22;0.55;;;2.10;71.10;;;;;;4795135;29;20061;-78
2024/01/09 10:57:43;;;;;;;4.75;1.27;;;1.70;71.00;;;;;;4825650;29;20077;-79
2024/01/09 11:00:13;;;;;;;4.03;1.00;;;1.70;72.90;;;;;;4826643;29;20050;-78
2024/01/09 11:02:42;;;;;;;4.07;0.60;;;1.70;71.80;;;;;;4833935;29;20101;-78
2024/01/09 11:05:11;;;;;;;4.20;0.80;;;1.90;71.80;;;;;;4826043;29;20065;-79
2024/01/09 11:07:42;;;;;;;3.47;0.70;;;1.90;70.60;;;;;;4835462;29;20073;-78
2024/01/09 11:10:18;;;;;;;2.70;0.45;;;2.10;70.40;;;;;;4835819;29;20101;-78
2024/01/09 11:12:52;;;;;;;2.28;0.35;;;2.20;68.80;;;;;;4807053;29;20054;-78
2024/01/09 11:15:25;;;;;;;2.38;0.55;;;2.20;66.00;;;;;;4832591;29;20061;-78
2024/01/09 11:17:58;;;;;;;2.40;0.80;;;2.00;64.20;;;;;;4830611;29;20052;-77
2024/01/09 11:20:27;;;;;;;3.22;0.57;;;2.00;64.80;;;;;;4826070;29;20044;-78
2024/01/09 11:22:56;;;;;;;2.42;0.52;;;2.10;66.60;;;;;;4814757;29;20069;-78
2024/01/09 11:25:28;;;;;;;2.42;0.38;;;2.10;67.00;;;;;;4804184;29;20057;-78
2024/01/09 11:28:00;;;;;;;1.67;0.20;;;2.10;65.80;;;;;;4844930;29;20045;-78
2024/01/09 11:30:32;;;;;;;3.70;0.57;;;2.20;66.90;;;;;;4837156;29;20053;-78
2024/01/09 11:33:28;;;;;;;9.68;3.25;;;2.20;66.00;;;;;;4841597;29;20057;-77
2024/01/09 11:36:03;;;;;;;11.70;4.70;;;2.10;66.20;;;;;;4828498;29;20057;-78
2024/01/09 11:38:32;;;;;;;3.63;1.38;;;2.10;67.60;;;;;;4826809;29;20053;-78
2024/01/09 11:41:06;;;;;;;9.98;4.65;;;2.20;69.20;;;;;;4824149;29;20056;-78
2024/01/09 11:43:58;;;;;;;19.00;9.77;;;2.10;68.10;;;;;;4826480;29;20059;-76
2024/01/09 11:46:28;;;;;;;80.32;35.92;;;2.10;66.30;;;;;;4831800;29;20581;-78
2024/01/09 11:48:57;;;;;;;62.45;32.88;;;2.00;67.50;;;;;;4834705;29;20065;-77
2024/01/09 11:51:26;;;;;;;15.90;11.73;;;2.00;66.90;;;;;;4804506;29;20188;-78
2024/01/09 11:53:55;;;;;;;6.03;3.78;;;2.10;68.10;;;;;;4799747;29;20496;-76
2024/01/09 11:56:26;;;;;;;5.43;2.20;;;2.00;67.60;;;;;;4778941;29;20058;-76
2024/01/09 11:58:54;;;;;;;3.95;1.88;;;2.10;67.90;;;;;;4789630;29;20189;-77
2024/01/09 12:01:23;;;;;;;3.55;1.50;;;2.10;67.00;;;;;;4750117;29;20089;-77
2024/01/09 12:03:53;;;;;;;4.25;1.60;;;2.10;67.80;;;;;;4757775;29;20202;-76
2024/01/09 12:06:23;;;;;;;5.18;1.52;;;2.10;67.60;;;;;;4776097;29;20506;-77
2024/01/09 12:08:53;;;;;;;20.90;9.20;;;2.10;68.00;;;;;;4778802;29;20113;-77
2024/01/09 12:11:22;;;;;;;176.85;42.65;;;2.10;68.40;;;;;;4783045;29;20838;-76
2024/01/09 12:14:00;;;;;;;33.85;11.20;;;2.10;68.60;;;;;;4786665;29;20827;-77
2024/01/09 12:16:30;;;;;;;36.97;11.35;;;2.10;68.50;;;;;;4756294;29;20121;-76
2024/01/09 12:18:59;;;;;;;15.10;5.85;;;2.00;67.60;;;;;;4754019;29;20062;-76
2024/01/09 12:21:30;;;;;;;8.32;3.42;;;2.00;67.70;;;;;;4774890;29;20241;-76
2024/01/09 12:24:01;;;;;;;10.77;3.95;;;1.90;67.30;;;;;;4766127;29;20134;-76
2024/01/09 12:26:49;;;;;;;5.57;1.55;;;1.80;66.80;;;;;;4771064;29;20096;-76
2024/01/09 12:29:19;;;;;;;6.22;1.73;;;1.70;66.80;;;;;;4748964;29;20292;-77
2024/01/09 12:31:48;;;;;;;10.63;5.47;;;1.70;66.60;;;;;;4807615;29;20057;-76
2024/01/09 12:34:16;;;;;;;7.78;4.05;;;1.70;68.30;;;;;;4812221;29;20088;-76
2024/01/09 12:36:45;;;;;;;10.48;4.57;;;1.60;66.10;;;;;;4810933;29;20093;-77
2024/01/09 12:39:17;;;;;;;9.98;3.92;;;1.60;65.90;;;;;;4793936;29;20056;-77
2024/01/09 12:41:45;;;;;;;12.02;4.75;;;1.60;65.10;;;;;;4811088;29;20113;-76
2024/01/09 12:44:14;;;;;;;12.68;5.05;;;1.60;66.20;;;;;;4812324;29;20058;-75
2024/01/09 12:46:44;;;;;;;22.35;8.88;;;1.60;66.00;;;;;;4785987;29;20714;-77
2024/01/09 12:49:13;;;;;;;9.93;3.90;;;1.60;66.30;;;;;;4806556;29;20112;-76
2024/01/09 12:51:43;;;;;;;8.50;4.38;;;1.60;66.60;;;;;;4810417;29;20057;-78
2024/01/09 12:54:15;;;;;;;8.27;3.10;;;1.60;65.70;;;;;;4812037;29;20505;-76
2024/01/09 12:56:46;;;;;;;18.35;7.22;;;1.70;66.30;;;;;;4825745;29;20045;-76
2024/01/09 12:59:18;;;;;;;11.90;5.03;;;1.80;66.80;;;;;;4819560;29;22702;-77
2024/01/09 13:01:48;;;;;;;11.10;3.85;;;1.80;67.70;;;;;;4797260;29;20054;-76
2024/01/09 13:04:16;;;;;;;7.60;3.47;;;1.90;67.10;;;;;;4824998;29;20064;-75
2024/01/09 13:06:45;;;;;;;5.93;2.72;;;1.90;67.50;;;;;;4803595;29;20752;-74